Sylvan, Minnesota
Current Conditions -  °F | °C
As of 8:21 AM on Monday 26 Jan 2015 (Local Time) from KBRD Reporting Station
Haze Haze  
Wind Chill: 22°   Ceiling: 1500
Heat Index: 28°   Visibility: 6mi
Dew Point: 27°   Wind: 6mph
Humidity: 96%   Direction: 220°SW
Pressure: 29.64"   Gusts: NA
Location:  46.4437°N, 94.4479°W
Report Text: KBRD 261421Z AUTO 22005KT 6SM BR BKN015 OVC033 M02/M03 A2964 RMK AO2 T10221028
Loading
Personal Weather Stations






























Interactive Weather Map New forecast layout! Learn more

10-Day Weather Forecast

Advertisements
Track Severe Weather on mobile